Walnut Grove, Minnesota
Current Conditions -  °F | °C
As of 3:12 AM on Wednesday 28 Jan 2015 (Local Time) from KTKC Reporting Station
Clear Clear  
Wind Chill: 22°   Ceiling: Unl
Heat Index: 32°   Visibility: 7mi
Dew Point: 31°   Wind: 15mph
Humidity: 95%   Direction: 160°SSE
Pressure: 29.91"   Gusts: 22mph
Location:  44.22°N, 95.47°W
Report Text: KTKC 280912Z AUTO 16013G19KT 7SM CLR 00/00 A2991 RMK AO2 T00021005
Loading
Personal Weather Stations






























Interactive Weather Map New forecast layout! Learn more

10-Day Weather Forecast

Advertisements
Track Severe Weather on mobile